MSC Bari — A8YD3 — position and weather

sailwx.info

Track history (hours):
 
Tides and Currents Weather Stations Pressure Air Temp Water Temp Dewpoint Dewpoint Depression Visibility Wind Speed Wind Dir Waves Ship Positions

MSC Bari

Last reported at 2015-May-26 14:25 UTC. Time now 2015-May-27 01:53 UTC.
Position N 34°12' E 125°20'.

Length 366 m; draft 11.9 m.

Type: Ship (hazmat cat A). MMSI: 636092188.

Date/timePositionNaut miles runAvg speedWind from/ knotsBaromVisibWave heightAir tempDewpointWater temp
2015-May-26 14:25N 34°12' E 125°20'3114.6
2015-May-26 12:18N 34°26' E 124°47'1314.5
2015-May-26 11:24N 34°32' E 124°33'1414.5
2015-May-26 10:25N 34°39' E 124°17'1314.6
2015-May-26 09:33N 34°44' E 124°03'2914.6
2015-May-26 07:33N 34°58' E 123°32'1614.3
2015-May-26 06:28N 35°03' E 123°14'1314.7
2015-May-26 05:33N 35°08' E 122°59'1514.8
2015-May-26 04:33N 35°15' E 122°43'1514.4
2015-May-26 03:31N 35°24' E 122°28'1414.3
2015-May-26 02:33N 35°30' E 122°13'1514.1
2015-May-26 01:29N 35°37' E 121°56'77 2.1
2015-May-24 13:19N 36°00' E 120°26'1517.8
2015-May-24 12:30N 35°57' E 120°44'6 5.4
2015-May-24 11:22N 35°60' E 120°51'1 0.7
2015-May-24 10:31N 35°59' E 120°51'20 8.8
2015-May-24 08:13N 35°39' E 120°57'19011.4
2015-May-23 15:32N 32°56' E 122°53'3411.1
2015-May-23 12:30N 32°22' E 122°55'2310.6
2015-May-23 10:20N 32°00' E 123°03'1311.7
2015-May-23 09:11N 31°47' E 123°04'3412.7
2015-May-23 06:31N 31°13' E 123°04'8013.1
2015-May-23 00:22N 29°53' E 123°00'2613.1
2015-May-22 22:24N 29°29' E 122°49'2312.1
2015-May-22 20:32N 29°08' E 122°39'29112.5
2015-May-21 21:16N 25°00' E 119°48'4110.6
2015-May-21 17:26N 24°32' E 119°16'910.5
2015-May-21 16:33N 24°28' E 119°07'1510.9
2015-May-21 15:10N 24°20' E 118°53'2911.0
2015-May-21 12:33N 24°13' E 118°22'1212.1
2015-May-21 11:33N 24°20' E 118°11'1010.2
2015-May-21 10:32N 24°26' E 118°02'0 0.0
2015-May-21 09:31N 24°26' E 118°02'0 0.0
2015-May-21 08:32N 24°26' E 118°02'0 0.0
2015-May-21 07:31N 24°26' E 118°02'0 0.0
2015-May-21 06:31N 24°26' E 118°02'0 0.0
2015-May-21 04:26N 24°26' E 118°02'0 0.0
2015-May-21 03:26N 24°26' E 118°02'0 0.0
2015-May-21 01:25N 24°26' E 118°02'0 0.0
2015-May-21 00:13N 24°26' E 118°02'0 0.0
2015-May-20 23:31N 24°26' E 118°02'0 0.0
2015-May-20 22:32N 24°26' E 118°02'0 0.0
2015-May-20 21:31N 24°26' E 118°02'0 0.0
2015-May-20 20:31N 24°26' E 118°02'0 0.0
2015-May-20 19:31N 24°26' E 118°02'0 0.0
2015-May-20 18:25N 24°26' E 118°02'0 0.0
2015-May-20 17:13N 24°26' E 118°02'0 0.0
2015-May-20 16:19N 24°26' E 118°02'0 0.0
2015-May-20 15:11N 24°26' E 118°02'0 0.2
2015-May-20 14:33N 24°26' E 118°02'8 7.7
2015-May-20 13:32N 24°22' E 118°09'9 8.9
2015-May-20 12:34N 24°16' E 118°15'1010.4
2015-May-20 11:34N 24°05' E 118°18'1111.0
2015-May-20 10:33N 23°55' E 118°13'1111.1
2015-May-20 09:33N 23°46' E 118°06'1211.7
2015-May-20 08:33N 23°37' E 117°58'1010.3
2015-May-20 07:33N 23°31' E 117°49'9 9.2
2015-May-20 06:33N 23°27' E 117°40'11 9.9
2015-May-20 05:27N 23°21' E 117°31'3511.8
2015-May-20 02:32N 22°56' E 117°04'1312.6
2015-May-20 01:30N 22°49' E 116°52'13212.8
2015-May-19 15:10N 22°22' E 114°32'4 0.3
2015-May-19 01:32N 22°21' E 114°28'9 9.7
2015-May-19 00:33N 22°11' E 114°28'1211.8
2015-May-18 23:32N 21°60' E 114°24'24814.1
2015-May-18 06:00N 18°00' E 113°18'   200 / 171010.010.8 1.531.328.428.3
Track history (hours):
 
Tides and Currents Weather Stations Pressure Air Temp Water Temp Dewpoint Dewpoint Depression Visibility Wind Speed Wind Dir Waves Ship Positions

MSC Bari

Last reported at 2015-May-26 14:25 UTC. Time now 2015-May-27 01:53 UTC.
Position N 34°12' E 125°20'.

Length 366 m; draft 11.9 m.

Type: Ship (hazmat cat A). MMSI: 636092188.

Date/timePositionNaut miles runAvg speedWind from/ knotsBaromVisibWave heightAir tempDewpointWater temp
2015-May-26 14:25N 34°12' E 125°20'3114.6
2015-May-26 12:18N 34°26' E 124°47'1314.5
2015-May-26 11:24N 34°32' E 124°33'1414.5
2015-May-26 10:25N 34°39' E 124°17'1314.6
2015-May-26 09:33N 34°44' E 124°03'2914.6
2015-May-26 07:33N 34°58' E 123°32'1614.3
2015-May-26 06:28N 35°03' E 123°14'1314.7
2015-May-26 05:33N 35°08' E 122°59'1514.8
2015-May-26 04:33N 35°15' E 122°43'1514.4
2015-May-26 03:31N 35°24' E 122°28'1414.3
2015-May-26 02:33N 35°30' E 122°13'1514.1
2015-May-26 01:29N 35°37' E 121°56'77 2.1
2015-May-24 13:19N 36°00' E 120°26'1517.8
2015-May-24 12:30N 35°57' E 120°44'6 5.4
2015-May-24 11:22N 35°60' E 120°51'1 0.7
2015-May-24 10:31N 35°59' E 120°51'20 8.8
2015-May-24 08:13N 35°39' E 120°57'19011.4
2015-May-23 15:32N 32°56' E 122°53'3411.1
2015-May-23 12:30N 32°22' E 122°55'2310.6
2015-May-23 10:20N 32°00' E 123°03'1311.7
2015-May-23 09:11N 31°47' E 123°04'3412.7
2015-May-23 06:31N 31°13' E 123°04'8013.1
2015-May-23 00:22N 29°53' E 123°00'2613.1
2015-May-22 22:24N 29°29' E 122°49'2312.1
2015-May-22 20:32N 29°08' E 122°39'29112.5
2015-May-21 21:16N 25°00' E 119°48'4110.6
2015-May-21 17:26N 24°32' E 119°16'910.5
2015-May-21 16:33N 24°28' E 119°07'1510.9
2015-May-21 15:10N 24°20' E 118°53'2911.0
2015-May-21 12:33N 24°13' E 118°22'1212.1
2015-May-21 11:33N 24°20' E 118°11'1010.2
2015-May-21 10:32N 24°26' E 118°02'0 0.0
2015-May-21 09:31N 24°26' E 118°02'0 0.0
2015-May-21 08:32N 24°26' E 118°02'0 0.0
2015-May-21 07:31N 24°26' E 118°02'0 0.0
2015-May-21 06:31N 24°26' E 118°02'0 0.0
2015-May-21 04:26N 24°26' E 118°02'0 0.0
2015-May-21 03:26N 24°26' E 118°02'0 0.0
2015-May-21 01:25N 24°26' E 118°02'0 0.0
2015-May-21 00:13N 24°26' E 118°02'0 0.0
2015-May-20 23:31N 24°26' E 118°02'0 0.0
2015-May-20 22:32N 24°26' E 118°02'0 0.0
2015-May-20 21:31N 24°26' E 118°02'0 0.0
2015-May-20 20:31N 24°26' E 118°02'0 0.0
2015-May-20 19:31N 24°26' E 118°02'0 0.0
2015-May-20 18:25N 24°26' E 118°02'0 0.0
2015-May-20 17:13N 24°26' E 118°02'0 0.0
2015-May-20 16:19N 24°26' E 118°02'0 0.0
2015-May-20 15:11N 24°26' E 118°02'0 0.2
2015-May-20 14:33N 24°26' E 118°02'8 7.7
2015-May-20 13:32N 24°22' E 118°09'9 8.9
2015-May-20 12:34N 24°16' E 118°15'1010.4
2015-May-20 11:34N 24°05' E 118°18'1111.0
2015-May-20 10:33N 23°55' E 118°13'1111.1
2015-May-20 09:33N 23°46' E 118°06'1211.7
2015-May-20 08:33N 23°37' E 117°58'1010.3
2015-May-20 07:33N 23°31' E 117°49'9 9.2
2015-May-20 06:33N 23°27' E 117°40'11 9.9
2015-May-20 05:27N 23°21' E 117°31'3511.8
2015-May-20 02:32N 22°56' E 117°04'1312.6
2015-May-20 01:30N 22°49' E 116°52'13212.8
2015-May-19 15:10N 22°22' E 114°32'4 0.3
2015-May-19 01:32N 22°21' E 114°28'9 9.7
2015-May-19 00:33N 22°11' E 114°28'1211.8
2015-May-18 23:32N 21°60' E 114°24'24814.1
2015-May-18 06:00N 18°00' E 113°18'   200 / 171010.010.8 1.531.328.428.3

Dump ship's entire track history